Time;durP1;ratioP1;P1;durP2;ratioP2;P2;SDS_P1;SDS_P2;PMS_P1;PMS_P2;Temp;Humidity;BMP_temperature;BMP_pressure;BME280_temperature;BME280_humidity;BME280_pressure;Samples;Min_cycle;Max_cycle;Signal;HPM_P1;HPM_P2
2023/01/11 00:01:34;;;;;;;44.75;29.85;;;;;;;7.85;100.00;99780.19;5051573;28;20068;-74
2023/01/11 00:03:59;;;;;;;45.40;30.48;;;;;;;7.58;100.00;99756.28;5050260;28;20144;-73
2023/01/11 00:06:24;;;;;;;44.60;29.20;;;;;;;7.95;100.00;99790.94;5051759;28;20072;-72
2023/01/11 00:08:50;;;;;;;39.47;27.83;;;;;;;8.07;100.00;99761.16;5051745;28;20033;-73
2023/01/11 00:11:16;;;;;;;40.42;29.10;;;;;;;8.03;100.00;99754.50;5051500;28;20135;-72
2023/01/11 00:13:44;;;;;;;37.45;28.40;;;;;;;7.89;100.00;99744.66;5049908;28;20164;-72
2023/01/11 00:16:10;;;;;;;39.08;27.00;;;;;;;8.01;100.00;99737.66;5050904;28;20028;-72
2023/01/11 00:18:37;;;;;;;39.10;27.70;;;;;;;7.33;100.00;99593.25;5049983;28;20056;-72
2023/01/11 00:21:04;;;;;;;38.97;28.40;;;;;;;7.60;100.00;99665.19;5050597;28;20086;-72
2023/01/11 00:23:34;;;;;;;42.70;29.52;;;;;;;7.76;100.00;99709.53;5051227;28;20036;-72
2023/01/11 00:26:09;;;;;;;42.42;29.95;;;;;;;7.71;100.00;99719.75;5050786;28;20040;-72
2023/01/11 00:28:34;;;;;;;43.95;29.75;;;;;;;7.73;100.00;99712.13;5050912;28;20123;-72
2023/01/11 00:31:00;;;;;;;45.03;30.35;;;;;;;7.76;100.00;99737.38;5049702;28;20476;-72
2023/01/11 00:33:25;;;;;;;41.00;29.20;;;;;;;7.87;100.00;99723.63;5051014;28;20111;-71
2023/01/11 00:35:52;;;;;;;44.65;30.38;;;;;;;7.48;100.00;99656.16;5050673;28;20040;-73
2023/01/11 00:47:55;;;;;;;50.92;33.10;;;;;;;7.72;100.00;99707.94;5050992;28;20579;-73
2023/01/11 00:49:17;;;;;;;48.05;32.58;;;;;;;7.53;100.00;99714.22;5049792;28;20036;-73
2023/01/11 00:51:42;;;;;;;52.35;33.75;;;;;;;7.17;100.00;99656.81;5050679;28;20033;-73
2023/01/11 00:54:08;;;;;;;45.55;31.08;;;;;;;7.18;100.00;99618.88;5050901;28;20044;-72
2023/01/11 00:56:34;;;;;;;50.40;33.33;;;;;;;7.59;100.00;99703.97;5050633;28;20536;-72
2023/01/11 00:59:00;;;;;;;50.67;34.08;;;;;;;7.59;100.00;99674.47;5050876;28;20411;-73
2023/01/11 01:01:25;;;;;;;51.10;33.30;;;;;;;7.21;100.00;99608.69;5050865;28;20033;-72
2023/01/11 01:03:51;;;;;;;55.20;34.80;;;;;;;7.68;100.00;99678.50;5051088;28;20057;-73
2023/01/11 01:06:16;;;;;;;58.38;34.47;;;;;;;7.12;100.00;99578.56;5050767;28;20033;-73
2023/01/11 01:08:42;;;;;;;51.83;33.28;;;;;;;7.43;100.00;99652.03;5051219;28;20048;-73
2023/01/11 01:11:07;;;;;;;59.22;37.58;;;;;;;7.51;100.00;99657.78;5050557;28;20140;-73
2023/01/11 01:16:18;;;;;;;72.07;42.50;;;;;;;7.22;100.00;99665.13;5050719;28;20039;-73
2023/01/11 01:18:43;;;;;;;69.90;41.05;;;;;;;6.66;100.00;99573.56;5051270;28;20373;-73
2023/01/11 01:21:09;;;;;;;68.55;42.08;;;;;;;6.90;100.00;99588.25;5053056;28;20035;-72
2023/01/11 01:23:34;;;;;;;74.60;44.25;;;;;;;6.81;100.00;99574.97;5054160;28;20495;-72
2023/01/11 01:26:03;;;;;;;72.20;44.15;;;;;;;7.37;100.00;99665.66;5053113;28;20032;-72
2023/01/11 01:28:28;;;;;;;69.53;42.80;;;;;;;6.91;100.00;99622.75;5054413;28;20462;-71
2023/01/11 01:30:54;;;;;;;66.93;42.35;;;;;;;6.72;100.00;99613.03;5053436;28;20071;-71
2023/01/11 01:33:19;;;;;;;75.75;43.13;;;;;;;6.90;100.00;99628.69;5053220;28;20025;-71
2023/01/11 01:35:44;;;;;;;68.30;41.50;;;;;;;7.21;100.00;99679.44;5054210;28;20548;-73
2023/01/11 01:38:10;;;;;;;73.55;44.13;;;;;;;7.11;100.00;99669.56;5053727;28;20028;-72
2023/01/11 01:40:43;;;;;;;77.00;44.90;;;;;;;7.17;100.00;99666.94;5054033;28;20033;-72
2023/01/11 01:43:14;;;;;;;79.63;44.58;;;;;;;7.07;100.00;99665.44;5054254;28;20470;-72
2023/01/11 01:45:42;;;;;;;81.73;46.13;;;;;;;7.13;100.00;99678.75;5052583;28;20095;-71
2023/01/11 01:48:19;;;;;;;77.40;44.83;;;;;;;7.08;100.00;99630.03;5052710;28;20446;-72
2023/01/11 01:50:52;;;;;;;75.05;43.85;;;;;;;6.86;100.00;99616.13;5053491;28;20033;-71
2023/01/11 01:53:37;;;;;;;80.60;46.15;;;;;;;6.87;100.00;99618.63;5054146;28;20111;-72
2023/01/11 01:56:12;;;;;;;72.53;42.42;;;;;;;6.96;100.00;99627.72;5054225;28;20037;-71
2023/01/11 01:58:45;;;;;;;69.60;41.65;;;;;;;6.62;100.00;99549.22;5052736;28;20032;-72
2023/01/11 02:04:07;;;;;;;66.90;40.15;;;;;;;6.93;100.00;99610.91;5053738;28;20055;-71
2023/01/11 02:06:33;;;;;;;76.50;43.95;;;;;;;6.61;100.00;99565.25;5053759;28;20082;-72
2023/01/11 02:09:07;;;;;;;82.22;50.22;;;;;;;7.46;100.00;99670.53;5053572;28;20039;-72
2023/01/11 02:11:33;;;;;;;84.25;52.17;;;;;;;7.13;100.00;99622.34;5053602;28;20108;-72
2023/01/11 02:14:02;;;;;;;89.22;55.17;;;;;;;7.05;100.00;99625.03;5053585;28;20037;-71
2023/01/11 02:16:28;;;;;;;95.28;57.08;;;;;;;7.25;100.00;99676.00;5053751;28;20036;-73
2023/01/11 02:18:55;;;;;;;79.88;51.22;;;;;;;7.31;100.00;99678.41;5053854;28;20029;-73
2023/01/11 02:21:26;;;;;;;78.78;47.67;;;;;;;7.44;100.00;99681.53;5052428;28;20044;-72
2023/01/11 02:24:31;;;;;;;69.63;42.33;;;;;;;7.00;100.00;99617.53;5033874;28;20041;-73
2023/01/11 02:27:23;;;;;;;69.07;43.72;;;;;;;7.45;100.00;99673.06;5032678;28;20033;-74
2023/01/11 02:29:56;;;;;;;64.57;41.28;;;;;;;7.49;100.00;99679.75;5032344;28;20059;-74
2023/01/11 02:32:33;;;;;;;62.85;41.03;;;;;;;7.46;100.00;99689.94;5033370;28;20288;-74
2023/01/11 02:35:19;;;;;;;65.63;40.83;;;;;;;6.92;100.00;99596.63;5033844;28;20033;-74
2023/01/11 02:38:03;;;;;;;66.97;41.78;;;;;;;7.48;100.00;99698.31;5033442;28;20488;-75
2023/01/11 02:40:59;;;;;;;64.68;40.33;;;;;;;7.38;100.00;99707.78;5034036;28;20032;-75
2023/01/11 02:46:26;;;;;;;65.78;41.35;;;;;;;7.38;100.00;99722.97;5033897;28;20045;-75
2023/01/11 02:48:58;;;;;;;73.20;44.97;;;;;;;7.35;100.00;99704.50;5033398;28;20026;-74
2023/01/11 02:51:37;;;;;;;64.32;40.58;;;;;;;7.43;100.00;99702.63;5032921;28;20044;-72
2023/01/11 02:54:08;;;;;;;59.97;39.17;;;;;;;6.98;100.00;99641.16;5031832;28;20035;-73
2023/01/11 02:56:40;;;;;;;46.78;28.08;;;;;;;7.19;100.00;99708.16;5032178;28;20045;-73
2023/01/11 02:59:14;;;;;;;92.00;53.38;;;;;;;6.89;100.00;99642.16;5031775;28;20029;-73
2023/01/11 03:01:47;;;;;;;86.70;51.53;;;;;;;7.43;100.00;99723.69;5038145;28;20037;-73
2023/01/11 03:04:29;;;;;;;67.28;42.25;;;;;;;7.24;100.00;99741.75;5052992;28;20507;-72
2023/01/11 03:07:18;;;;;;;;;;;;;;;7.21;100.00;99740.13;5053490;28;20029;-72
2023/01/11 03:10:07;;;;;;;62.55;41.15;;;;;;;6.80;100.00;99677.72;5052521;28;19966;-73
2023/01/11 03:12:54;;;;;;;69.65;42.30;;;;;;;6.93;100.00;99719.56;5052902;28;20053;-73
2023/01/11 03:15:36;;;;;;;80.18;51.35;;;;;;;6.70;100.00;99690.50;5053134;28;20411;-73
2023/01/11 03:18:20;;;;;;;;;;;;;;;7.01;100.00;99780.91;5053302;28;20037;-74
2023/01/11 03:21:00;;;;;;;64.85;37.20;;;;;;;6.56;100.00;99722.72;5051647;28;20002;-73
2023/01/11 03:23:52;;;;;;;64.97;38.72;;;;;;;6.48;100.00;99694.25;5051154;28;20033;-72
2023/01/11 03:26:29;;;;;;;63.42;37.10;;;;;;;6.86;100.00;99755.91;5051315;28;20139;-73
2023/01/11 03:29:25;;;;;;;60.25;33.40;;;;;;;6.91;100.00;99776.06;5052563;28;20029;-73
2023/01/11 03:32:14;;;;;;;51.35;28.80;;;;;;;6.86;100.00;99783.69;5051991;28;20047;-73
2023/01/11 03:34:53;;;;;;;47.28;26.15;;;;;;;6.32;100.00;99718.09;5052012;28;20076;-72
2023/01/11 03:37:30;;;;;;;44.95;26.60;;;;;;;6.48;100.00;99737.16;5051842;28;20025;-73
2023/01/11 03:40:06;;;;;;;41.45;23.40;;;;;;;6.25;100.00;99712.28;5052390;28;20025;-73
2023/01/11 03:42:34;;;;;;;100.15;55.90;;;;;;;6.59;100.00;99776.56;5050063;28;20029;-73
2023/01/11 03:45:02;;;;;;;87.80;54.95;;;;;;;6.25;100.00;99708.91;5052343;28;20078;-72
2023/01/11 03:47:29;;;;;;;34.28;21.80;;;;;;;6.72;100.00;99785.63;5051293;28;20119;-71
2023/01/11 03:50:04;;;;;;;33.10;19.73;;;;;;;6.77;100.00;99773.72;5052006;28;20119;-71
2023/01/11 03:52:37;;;;;;;23.67;15.93;;;;;;;6.33;100.00;99732.34;5050368;28;20037;-72
2023/01/11 03:55:06;;;;;;;26.20;15.30;;;;;;;6.63;100.00;99812.69;5051314;28;20025;-72
2023/01/11 03:57:36;;;;;;;23.50;14.05;;;;;;;6.33;100.00;99753.41;5050702;28;20029;-71
2023/01/11 04:00:05;;;;;;;20.10;13.77;;;;;;;6.29;100.00;99744.19;5044300;28;20068;-72
2023/01/11 04:02:38;;;;;;;21.95;14.07;;;;;;;6.02;100.00;99747.13;5031107;28;20033;-72
2023/01/11 04:05:05;;;;;;;19.38;12.07;;;;;;;6.33;100.00;99735.72;5031778;28;20071;-73
2023/01/11 04:07:31;;;;;;;17.52;11.77;;;;;;;6.19;100.00;99735.09;5031309;28;20032;-72
2023/01/11 04:09:57;;;;;;;17.45;11.98;;;;;;;6.65;100.00;99816.03;5031659;28;20025;-71
2023/01/11 04:12:23;;;;;;;16.27;11.52;;;;;;;6.41;100.00;99759.16;5049116;28;20036;-77
2023/01/11 04:14:49;;;;;;;16.63;12.27;;;;;;;6.32;100.00;99687.81;5051845;28;20033;-74
2023/01/11 04:17:14;;;;;;;17.90;12.38;;;;;;;6.25;100.00;99757.72;5050813;28;20422;-72
2023/01/11 04:19:40;;;;;;;18.27;12.57;;;;;;;6.28;100.00;99769.47;5051325;28;20530;-74
2023/01/11 04:22:05;;;;;;;16.23;10.85;;;;;;;6.09;100.00;99782.34;5051147;28;20017;-72
2023/01/11 04:24:30;;;;;;;16.95;11.38;;;;;;;6.16;100.00;99794.88;5050408;28;20029;-73
2023/01/11 04:26:56;;;;;;;15.63;10.63;;;;;;;6.54;100.00;99870.91;5047654;28;20411;-72
2023/01/11 04:29:21;;;;;;;15.90;10.55;;;;;;;6.46;100.00;99842.38;5043122;28;20033;-72
2023/01/11 04:31:47;;;;;;;15.70;11.02;;;;;;;6.61;100.00;99892.69;5048319;28;20438;-72
2023/01/11 04:34:12;;;;;;;14.23;10.43;;;;;;;6.38;100.00;99885.41;5050303;28;20103;-70
2023/01/11 04:36:37;;;;;;;19.92;12.18;;;;;;;6.12;100.00;99854.59;5050513;28;20057;-71
2023/01/11 04:39:03;;;;;;;16.98;11.35;;;;;;;5.71;100.00;99794.53;5050248;28;20109;-75
2023/01/11 04:44:13;;;;;;;16.17;11.00;;;;;;;5.97;100.00;99822.00;5050701;28;20535;-74
2023/01/11 04:46:38;;;;;;;34.72;18.80;;;;;;;6.10;100.00;99842.00;5050758;28;20063;-72
2023/01/11 04:49:04;;;;;;;34.40;17.70;;;;;;;6.39;100.00;99908.97;5050289;28;20025;-73
2023/01/11 04:51:29;;;;;;;32.85;18.30;;;;;;;6.61;100.00;99955.84;5050131;28;20082;-72
2023/01/11 04:53:55;;;;;;;38.92;20.48;;;;;;;5.98;100.00;99884.25;5052752;28;20033;-72
2023/01/11 04:56:21;;;;;;;29.90;17.00;;;;;;;5.98;100.00;99917.84;5052877;28;20017;-71
2023/01/11 04:58:46;;;;;;;36.42;21.52;;;;;;;6.09;100.00;99918.59;5053472;28;20606;-71
2023/01/11 05:01:16;;;;;;;20.42;12.55;;;;;;;6.08;100.00;99962.31;5053029;28;20079;-69
2023/01/11 05:03:43;;;;;;;21.33;12.50;;;;;;;6.25;100.00;99976.44;5053217;28;20052;-72
2023/01/11 05:06:08;;;;;;;33.08;18.38;;;;;;;6.27;100.00;99987.38;5053058;28;20025;-71
2023/01/11 05:08:34;;;;;;;36.35;19.83;;;;;;;6.84;100.00;99991.75;5053034;28;20036;-74
2023/01/11 05:11:04;;;;;;;28.42;16.23;;;;;;;7.17;100.00;99977.81;5054477;28;20049;-75
2023/01/11 05:13:41;;;;;;;16.95;9.90;;;;;;;7.69;100.00;99994.69;5054719;28;20087;-75
2023/01/11 05:16:11;;;;;;;13.27;9.25;;;;;;;6.64;100.00;99983.56;5053650;28;20473;-72
2023/01/11 05:18:41;;;;;;;13.68;9.40;;;;;;;6.73;100.00;99991.88;5055029;28;20035;-75
2023/01/11 05:21:07;;;;;;;12.17;8.30;;;;;;;6.34;100.00;99946.88;5054832;28;20029;-74
2023/01/11 05:23:36;;;;;;;11.30;8.77;;;;;;;6.56;100.00;100000.50;5053492;28;20267;-74
2023/01/11 05:26:07;;;;;;;10.10;7.50;;;;;;;6.74;100.00;99997.75;5054547;28;20040;-74
2023/01/11 05:28:33;;;;;;;10.45;7.35;;;;;;;6.18;100.00;99973.16;5054901;28;20033;-74
2023/01/11 05:30:59;;;;;;;12.98;7.93;;;;;;;6.86;100.00;100003.50;5054656;28;20044;-72
2023/01/11 05:33:24;;;;;;;14.30;8.23;;;;;;;7.03;100.00;99999.06;5054093;28;20484;-74
2023/01/11 05:35:58;;;;;;;11.38;8.32;;;;;;;6.52;100.00;100029.16;5054030;28;20035;-73
2023/01/11 05:38:23;;;;;;;12.23;9.23;;;;;;;5.31;100.00;99846.19;5054411;28;20029;-73
2023/01/11 05:41:00;;;;;;;11.57;8.52;;;;;;;6.96;100.00;100000.00;5054272;28;20476;-73
2023/01/11 05:43:28;;;;;;;14.88;10.50;;;;;;;6.88;100.00;99993.38;5053761;28;20499;-72
2023/01/11 05:45:55;;;;;;;9.55;8.35;;;;;;;6.06;100.00;99804.25;5048199;28;20060;-73
2023/01/11 05:48:21;;;;;;;29.30;9.30;;;;;;;8.27;100.00;99968.41;5043509;28;20082;-73
2023/01/11 05:50:50;;;;;;;10.15;7.88;;;;;;;6.44;100.00;99990.56;5042131;28;20037;-73
2023/01/11 05:53:16;;;;;;;9.23;6.60;;;;;;;6.04;100.00;99990.13;5052846;28;20036;-73
2023/01/11 05:56:11;;;;;;;9.02;6.90;;;;;;;6.28;100.00;99994.09;5052186;28;20037;-72
2023/01/11 05:58:36;;;;;;;8.02;6.80;;;;;;;5.76;100.00;99907.97;5042260;28;20035;-73
2023/01/11 06:01:01;;;;;;;10.23;8.00;;;;;;;5.54;100.00;99929.19;5051201;28;20718;-74
2023/01/11 06:03:27;;;;;;;13.23;9.90;;;;;;;6.27;100.00;100003.34;5051166;28;20682;-74
2023/01/11 06:05:53;;;;;;;12.23;9.60;;;;;;;6.18;100.00;100003.44;5052313;28;20032;-74
2023/01/11 06:08:19;;;;;;;10.00;8.70;;;;;;;5.96;100.00;99996.94;5052908;28;20514;-73
2023/01/11 06:10:55;;;;;;;11.02;8.93;;;;;;;5.45;100.00;99891.47;5052913;28;20029;-73
2023/01/11 06:13:25;;;;;;;12.07;10.20;;;;;;;6.40;100.00;100017.50;5052391;28;20025;-73
2023/01/11 06:15:59;;;;;;;12.43;9.85;;;;;;;5.97;100.00;99969.16;5052848;28;20056;-74
2023/01/11 06:18:25;;;;;;;10.23;8.77;;;;;;;6.40;100.00;100047.00;5052520;28;20037;-73
2023/01/11 06:20:53;;;;;;;9.63;7.10;;;;;;;6.28;100.00;100045.41;5052101;28;20033;-71
2023/01/11 06:23:19;;;;;;;9.32;7.45;;;;;;;6.24;100.00;100046.28;5051864;28;20040;-73
2023/01/11 06:25:45;;;;;;;12.05;7.80;;;;;;;5.81;100.00;100002.06;5053577;28;20025;-73
2023/01/11 06:28:11;;;;;;;9.13;7.93;;;;;;;6.20;100.00;100009.28;5053541;28;20238;-73
2023/01/11 06:30:36;;;;;;;10.25;8.45;;;;;;;6.18;100.00;100065.72;5053544;28;20043;-72
2023/01/11 06:33:05;;;;;;;11.98;9.48;;;;;;;5.78;100.00;100000.44;5052671;28;20021;-74
2023/01/11 06:35:39;;;;;;;13.10;10.82;;;;;;;5.75;100.00;100002.97;5053670;28;20037;-74
2023/01/11 06:38:05;;;;;;;17.20;12.68;;;;;;;6.24;100.00;100071.50;5053163;28;20044;-73
2023/01/11 06:40:30;;;;;;;17.60;14.10;;;;;;;6.29;100.00;100081.56;5052298;28;20029;-74
2023/01/11 06:42:56;;;;;;;14.77;12.00;;;;;;;5.82;100.00;100008.81;5053208;28;20384;-74
2023/01/11 06:45:21;;;;;;;17.08;13.27;;;;;;;6.19;100.00;100078.31;5053166;28;20166;-73
2023/01/11 06:47:47;;;;;;;25.63;17.17;;;;;;;6.20;100.00;100087.53;5053458;28;20403;-73
2023/01/11 06:50:12;;;;;;;32.72;23.60;;;;;;;5.88;100.00;100019.69;5053222;28;20048;-73
2023/01/11 06:52:38;;;;;;;27.27;20.00;;;;;;;6.17;100.00;100042.16;5053316;28;20079;-74
2023/01/11 06:55:04;;;;;;;32.53;26.55;;;;;;;6.56;100.00;100107.41;5051526;28;20035;-73
2023/01/11 06:57:29;;;;;;;25.20;18.40;;;;;;;5.72;100.00;99984.50;5052010;28;20029;-74
2023/01/11 06:59:54;;;;;;;20.95;14.77;;;;;;;5.81;100.00;100040.75;5051880;28;20029;-74
2023/01/11 07:02:20;;;;;;;22.83;16.52;;;;;;;6.48;100.00;100120.94;5052977;28;20029;-73
2023/01/11 07:04:45;;;;;;;85.60;61.53;;;;;;;6.13;100.00;100041.34;5051407;28;20053;-74
2023/01/11 07:07:10;;;;;;;15.15;12.90;;;;;;;6.29;100.00;100134.59;5052712;28;20033;-74
2023/01/11 07:09:36;;;;;;;30.23;23.90;;;;;;;6.29;100.00;100139.63;5052792;28;20033;-72
2023/01/11 07:12:01;;;;;;;83.70;71.38;;;;;;;6.35;100.00;100124.44;5052923;28;20075;-73
2023/01/11 07:14:27;;;;;;;47.47;39.53;;;;;;;6.21;100.00;100116.13;5051642;28;20021;-73
2023/01/11 07:16:52;;;;;;;36.67;31.15;;;;;;;6.27;100.00;100106.00;5052016;28;20407;-74
2023/01/11 07:19:18;;;;;;;21.65;17.65;;;;;;;6.19;100.00;100097.66;5052878;28;20021;-72
2023/01/11 07:21:43;;;;;;;17.00;13.80;;;;;;;5.93;100.00;100078.53;5052967;28;20121;-73
2023/01/11 07:24:09;;;;;;;20.33;16.85;;;;;;;6.24;100.00;100099.28;5052357;28;20040;-73
2023/01/11 07:26:40;;;;;;;14.48;11.23;;;;;;;6.04;100.00;100068.34;5052499;28;20025;-73
2023/01/11 07:29:06;;;;;;;15.02;10.98;;;;;;;6.07;100.00;100065.78;5052710;28;20112;-74
2023/01/11 07:31:31;;;;;;;16.85;11.82;;;;;;;5.90;100.00;100063.38;5051161;28;20033;-74
2023/01/11 07:33:57;;;;;;;17.70;12.93;;;;;;;6.28;100.00;100055.50;5052113;28;20047;-74
2023/01/11 07:36:22;;;;;;;17.52;11.93;;;;;;;6.96;100.00;100138.16;5052491;28;20078;-73
2023/01/11 07:38:47;;;;;;;16.17;11.30;;;;;;;6.78;100.00;100164.44;5052000;28;20036;-73
2023/01/11 07:43:56;;;;;;;23.85;16.83;;;;;;;6.00;100.00;100028.88;5052226;28;20043;-73
2023/01/11 07:46:22;;;;;;;21.83;15.85;;;;;;;6.53;100.00;100099.03;5052166;28;20036;-73
2023/01/11 07:48:47;;;;;;;27.42;19.55;;;;;;;6.53;100.00;100114.19;5052134;28;20025;-74
2023/01/11 07:51:15;;;;;;;25.73;18.50;;;;;;;6.83;100.00;100175.31;5052094;28;20128;-74
2023/01/11 07:53:40;;;;;;;25.80;19.15;;;;;;;6.60;100.00;100173.88;5051778;28;20025;-74
2023/01/11 07:56:06;;;;;;;28.20;21.25;;;;;;;6.56;100.00;100134.34;5051946;28;20032;-74
2023/01/11 07:58:31;;;;;;;29.90;22.73;;;;;;;6.73;100.00;100191.44;5051672;28;20037;-74
2023/01/11 08:01:00;;;;;;;25.90;20.10;;;;;;;6.43;100.00;100137.84;5051922;28;20043;-72
2023/01/11 08:03:25;;;;;;;17.42;13.07;;;;;;;6.66;100.00;100184.75;5051999;28;20045;-73
2023/01/11 08:05:51;;;;;;;13.88;10.40;;;;;;;6.63;100.00;100144.38;5051396;28;20043;-73
2023/01/11 08:08:17;;;;;;;14.27;11.48;;;;;;;6.45;100.00;100126.03;5050402;28;20104;-74
2023/01/11 08:10:42;;;;;;;19.83;14.48;;;;;;;6.85;100.00;100186.25;5051712;28;20154;-73
2023/01/11 08:15:59;;;;;;;23.02;16.58;;;;;;;6.78;100.00;100209.91;5051579;28;20102;-74
2023/01/11 08:18:24;;;;;;;17.73;13.13;;;;;;;6.22;100.00;100140.53;5050268;28;20032;-73
2023/01/11 08:20:53;;;;;;;23.95;16.63;;;;;;;6.81;100.00;100209.88;5051906;28;20029;-74
2023/01/11 08:23:18;;;;;;;20.33;17.60;;;;;;;6.86;100.00;100192.16;5051685;28;20029;-73
2023/01/11 08:25:44;;;;;;;16.70;12.55;;;;;;;6.75;100.00;100149.31;5051732;28;20079;-73
2023/01/11 08:28:10;;;;;;;22.05;12.63;;;;;;;6.82;100.00;100155.13;5050589;28;20439;-73
2023/01/11 08:30:36;;;;;;;32.22;22.52;;;;;;;7.01;100.00;100202.13;5051708;28;20057;-73
2023/01/11 08:33:03;;;;;;;20.58;15.50;;;;;;;7.19;100.00;100196.84;5051087;28;20033;-72
2023/01/11 08:35:29;;;;;;;16.58;13.35;;;;;;;6.90;100.00;100209.81;5051433;28;20107;-72
2023/01/11 08:37:55;;;;;;;16.48;12.38;;;;;;;7.05;100.00;100213.88;5051060;28;20119;-72
2023/01/11 08:40:20;;;;;;;46.08;36.90;;;;;;;6.39;100.00;100147.13;5051458;28;20029;-73
2023/01/11 08:42:45;;;;;;;32.72;28.10;;;;;;;6.98;100.00;100220.69;5051045;28;20144;-72
2023/01/11 08:45:11;;;;;;;27.90;24.45;;;;;;;6.85;100.00;100206.47;5051261;28;20036;-73
2023/01/11 08:47:36;;;;;;;22.20;19.48;;;;;;;7.13;100.00;100217.13;5050151;28;20021;-72
2023/01/11 08:50:02;;;;;;;20.30;18.02;;;;;;;7.06;100.00;100159.94;5050162;28;20028;-73
2023/01/11 08:52:27;;;;;;;15.88;12.43;;;;;;;6.99;100.00;100133.88;5050754;28;20124;-73
2023/01/11 08:54:53;;;;;;;17.52;13.93;;;;;;;6.82;100.00;100087.75;5050277;28;20079;-73
2023/01/11 08:57:18;;;;;;;13.80;12.05;;;;;;;7.23;100.00;100153.00;5050134;28;20506;-74
2023/01/11 08:59:43;;;;;;;14.93;11.70;;;;;;;7.15;100.00;100157.28;5050125;28;20111;-73
2023/01/11 09:02:11;;;;;;;15.20;12.30;;;;;;;7.66;100.00;100206.44;5051000;28;20491;-74
2023/01/11 09:04:36;;;;;;;16.67;13.88;;;;;;;7.20;100.00;100147.97;5051663;28;20212;-73
2023/01/11 09:07:02;;;;;;;18.70;15.07;;;;;;;7.38;100.00;100169.69;5049976;28;20056;-73
2023/01/11 09:09:29;;;;;;;18.90;15.48;;;;;;;7.75;100.00;100222.31;5051004;28;20029;-73
2023/01/11 09:11:59;;;;;;;17.75;14.85;;;;;;;7.41;100.00;100227.78;5051346;28;20182;-73
2023/01/11 09:14:26;;;;;;;20.67;17.00;;;;;;;7.21;100.00;100164.81;5051035;28;20112;-74
2023/01/11 09:16:53;;;;;;;25.30;19.65;;;;;;;7.47;100.00;100187.25;5049800;28;20029;-73
2023/01/11 09:19:19;;;;;;;24.25;20.35;;;;;;;7.49;100.00;100129.91;5051074;28;20036;-73
2023/01/11 09:21:45;;;;;;;28.92;25.35;;;;;;;7.29;100.00;100131.88;5051022;28;20036;-74
2023/01/11 09:24:11;;;;;;;26.13;22.63;;;;;;;7.98;100.00;100224.56;5050830;28;20108;-73
2023/01/11 09:26:37;;;;;;;25.17;20.85;;;;;;;7.81;100.00;100213.81;5050888;28;20032;-73
2023/01/11 09:29:03;;;;;;;31.52;26.85;;;;;;;7.66;100.00;100209.81;5049466;28;20040;-73
2023/01/11 09:31:29;;;;;;;35.25;29.73;;;;;;;7.33;100.00;100158.78;5050931;28;20033;-72
2023/01/11 09:33:54;;;;;;;33.80;27.30;;;;;;;7.36;100.00;100184.03;5050769;28;20033;-73
2023/01/11 09:36:20;;;;;;;34.03;26.15;;;;;;;7.85;100.00;100216.28;5050488;28;20029;-73
2023/01/11 09:38:49;;;;;;;31.52;24.67;;;;;;;7.54;100.00;100194.78;5050791;28;20021;-72
2023/01/11 09:41:16;;;;;;;31.70;25.17;;;;;;;7.81;100.00;100208.75;5053341;28;20033;-74
2023/01/11 09:43:51;;;;;;;45.13;34.60;;;;;;;7.90;100.00;100209.47;5053363;28;20063;-72
2023/01/11 09:46:18;;;;;;;38.40;29.27;;;;;;;8.20;100.00;100205.66;5054332;28;20032;-74
2023/01/11 09:48:53;;;;;;;33.22;27.50;;;;;;;8.26;100.00;100208.13;5054536;28;20037;-73
2023/01/11 09:51:22;;;;;;;37.53;28.38;;;;;;;8.08;100.00;100197.44;5054140;28;20033;-72
2023/01/11 09:53:50;;;;;;;34.20;27.38;;;;;;;8.37;100.00;100235.84;5053122;28;20096;-72
2023/01/11 09:56:24;;;;;;;35.92;29.10;;;;;;;8.40;100.00;100225.66;5054165;28;20095;-72
2023/01/11 09:59:05;;;;;;;37.40;30.40;;;;;;;8.53;100.00;100228.00;5052849;28;20513;-72
2023/01/11 10:01:46;;;;;;;32.40;27.50;;;;;;;8.52;100.00;100215.31;5052710;28;20040;-72
2023/01/11 10:04:35;;;;;;;32.22;26.75;;;;;;;8.20;100.00;100233.50;5053769;28;20055;-72
2023/01/11 10:07:13;;;;;;;28.77;21.83;;;;;;;8.26;100.00;100230.94;5053645;28;20029;-71
2023/01/11 10:10:06;;;;;;;26.33;19.42;;;;;;;8.52;100.00;100221.25;5052494;28;20110;-72
2023/01/11 10:12:31;;;;;;;25.23;19.60;;;;;;;8.59;100.00;100239.72;5053770;28;20028;-73
2023/01/11 10:15:14;;;;;;;22.35;18.65;;;;;;;8.59;100.00;100227.91;5053834;28;20048;-73
2023/01/11 10:18:18;;;;;;;26.02;19.92;;;;;;;8.75;100.00;100236.09;5054017;28;20484;-73
2023/01/11 10:20:50;;;;;;;19.80;17.33;;;;;;;8.93;100.00;100217.19;5045542;28;20226;-73
2023/01/11 10:23:35;;;;;;;23.95;18.42;;;;;;;8.58;100.00;100173.00;5044595;28;20041;-76
2023/01/11 10:26:08;;;;;;;30.80;24.65;;;;;;;8.84;100.00;100202.13;5039919;28;20033;-74
2023/01/11 10:28:44;;;;;;;32.05;26.80;;;;;;;9.03;100.00;100218.69;4701259;28;10000520;-75
2023/01/11 10:31:29;;;;;;;30.02;23.27;;;;;;;8.66;100.00;100153.44;5052926;28;20025;-74
2023/01/11 10:34:17;;;;;;;25.42;20.55;;;;;;;8.62;100.00;100158.56;5086499;28;20447;-74
2023/01/11 10:42:28;;;;;;;36.38;27.85;;;;;;;8.73;100.00;100204.88;5045907;28;20041;-75
2023/01/11 10:45:04;;;;;;;22.45;14.60;;;;;;;9.35;100.00;100140.28;5049202;28;20033;-73
2023/01/11 10:48:00;;;;;;;32.35;26.25;;;;;;;8.94;100.00;100213.78;5050537;28;20037;-76
2023/01/11 10:50:34;;;;;;;34.92;27.08;;;;;;;8.95;100.00;100223.91;5031814;28;20057;-75
2023/01/11 10:53:18;;;;;;;31.73;23.17;;;;;;;9.05;100.00;100222.84;5044017;28;20044;-75
2023/01/11 10:56:25;;;;;;;21.02;15.90;;;;;;;9.39;100.00;100223.91;5053324;28;20029;-80
2023/01/11 10:59:06;;;;;;;24.55;18.95;;;;;;;8.60;100.00;100168.75;5026672;28;20044;-75
2023/01/11 11:01:51;;;;;;;27.33;22.33;;;;;;;8.89;100.00;100213.88;5031951;28;20407;-75
2023/01/11 11:04:25;;;;;;;28.48;21.85;;;;;;;8.95;100.00;100205.31;5033576;28;20041;-76
2023/01/11 11:07:11;;;;;;;30.40;24.10;;;;;;;8.65;100.00;100138.28;5033202;28;20036;-77
2023/01/11 11:10:03;;;;;;;32.65;25.05;;;;;;;9.11;100.00;100194.03;5033462;28;20040;-76
2023/01/11 11:12:37;;;;;;;32.20;25.15;;;;;;;9.11;100.00;100191.50;5033965;28;20026;-75
2023/01/11 11:15:09;;;;;;;32.28;24.50;;;;;;;9.14;100.00;100188.91;5031898;28;20571;-73
2023/01/11 11:17:38;;;;;;;36.80;27.88;;;;;;;9.03;100.00;100165.47;5033043;28;20053;-74
2023/01/11 11:20:16;;;;;;;40.88;28.58;;;;;;;9.09;100.00;100185.63;5032757;28;20041;-74
2023/01/11 11:22:43;;;;;;;42.92;28.90;;;;;;;8.71;100.00;100136.44;5032689;28;20036;-74
2023/01/11 11:25:26;;;;;;;43.15;29.45;;;;;;;9.01;100.00;100195.06;5032595;28;20041;-74
2023/01/11 11:27:59;;;;;;;33.60;23.38;;;;;;;8.96;100.00;100187.53;5032701;28;20022;-75
2023/01/11 11:30:37;;;;;;;37.75;28.05;;;;;;;9.02;100.00;100186.59;5032740;28;20058;-75
2023/01/11 11:33:05;;;;;;;47.72;32.03;;;;;;;8.97;100.00;100183.31;5032141;28;20029;-77
2023/01/11 11:35:44;;;;;;;34.08;25.73;;;;;;;8.56;100.00;100124.06;5032446;28;20029;-78
2023/01/11 11:38:22;;;;;;;29.83;20.73;;;;;;;8.38;100.00;100129.44;5032651;28;20116;-80
2023/01/11 11:41:03;;;;;;;28.45;20.30;;;;;;;8.91;100.00;100212.16;5033236;28;20112;-79
2023/01/11 11:43:30;;;;;;;31.90;20.00;;;;;;;8.83;100.00;100190.34;5033743;28;20040;-76
2023/01/11 11:45:58;;;;;;;27.08;19.40;;;;;;;8.89;100.00;100197.81;5033612;28;20503;-77
2023/01/11 11:48:25;;;;;;;29.77;21.52;;;;;;;8.77;100.00;100185.38;5032936;28;20083;-76
2023/01/11 11:50:53;;;;;;;31.75;21.92;;;;;;;8.72;100.00;100201.47;5033268;28;20037;-77
2023/01/11 11:53:37;;;;;;;30.60;21.45;;;;;;;8.78;100.00;100185.34;5033475;28;20064;-77
2023/01/11 11:56:17;;;;;;;26.25;18.70;;;;;;;8.64;100.00;100183.03;5033697;28;20036;-77
2023/01/11 11:58:43;;;;;;;18.83;13.25;;;;;;;8.43;100.00;100183.41;5032488;28;20088;-75
2023/01/11 12:01:30;;;;;;;17.38;12.30;;;;;;;8.01;100.00;100130.84;5031135;28;20163;-76